SKW5850 KDEN-KTUL
Flight info
| Callsign | SKW5850 |
|---|---|
| Flight time | 1h 14m |
| Altitude | 39000 |
| Route | EPKEE7 GAETR KK51A TUL |
| Aircraft | CRJ7/M-SDFGIRWY/S |
Departure
| Time | 2026-05-04 22:03 |
|---|---|
| Airport | Denver International Airport (KDEN) |
Arrival
| Time | 2026-05-04 23:17 |
|---|---|
| Airport | Tulsa International Airport (KTUL) |
| Time | Latitude | Longitude | Altitude | Speed | Heading |
|---|---|---|---|---|---|
| 2026-05-04 21:28 | 39.85948 | -104.66656 | 5381 ft | 0 kts | 181° |
| 2026-05-04 21:53 | 39.85960 | -104.66656 | 5383 ft | 4 kts | 181° |
| 2026-05-04 21:53 | 39.85987 | -104.66655 | 5385 ft | 4 kts | 183° |
| 2026-05-04 21:53 | 39.86014 | -104.66652 | 5385 ft | 4 kts | 187° |
| 2026-05-04 21:54 | 39.86040 | -104.66645 | 5385 ft | 4 kts | 200° |
| 2026-05-04 21:54 | 39.86058 | -104.66626 | 5382 ft | 4 kts | 252° |
| 2026-05-04 21:54 | 39.86059 | -104.66614 | 5385 ft | 1 kts | 269° |
| 2026-05-04 21:54 | 39.86059 | -104.66613 | 5385 ft | 0 kts | 269° |
| 2026-05-04 21:57 | 39.86059 | -104.66639 | 5385 ft | 8 kts | 269° |
| 2026-05-04 21:57 | 39.86059 | -104.66720 | 5383 ft | 9 kts | 270° |
| 2026-05-04 21:57 | 39.86060 | -104.66805 | 5385 ft | 10 kts | 270° |
| 2026-05-04 21:57 | 39.86062 | -104.66895 | 5385 ft | 10 kts | 270° |
| 2026-05-04 21:58 | 39.86062 | -104.66987 | 5382 ft | 10 kts | 270° |
| 2026-05-04 21:58 | 39.86063 | -104.67081 | 5385 ft | 11 kts | 271° |
| 2026-05-04 21:58 | 39.86064 | -104.67192 | 5385 ft | 13 kts | 270° |
| 2026-05-04 21:58 | 39.86066 | -104.67316 | 5385 ft | 15 kts | 270° |
| 2026-05-04 21:59 | 39.86065 | -104.67461 | 5385 ft | 17 kts | 270° |
| 2026-05-04 21:59 | 39.86066 | -104.67564 | 5385 ft | 18 kts | 271° |
| 2026-05-04 21:59 | 39.86067 | -104.67732 | 5385 ft | 19 kts | 271° |
| 2026-05-04 21:59 | 39.86068 | -104.67912 | 5385 ft | 21 kts | 271° |
| 2026-05-04 22:00 | 39.86070 | -104.68100 | 5384 ft | 20 kts | 270° |
| 2026-05-04 22:00 | 39.86130 | -104.68243 | 5376 ft | 20 kts | 290° |
| 2026-05-04 22:00 | 39.86223 | -104.68423 | 5365 ft | 15 kts | 21° |
| 2026-05-04 22:00 | 39.86293 | -104.68397 | 5364 ft | 17 kts | 4° |
| 2026-05-04 22:01 | 39.86412 | -104.68408 | 5279 ft | 17 kts | 317° |
| 2026-05-04 22:01 | 39.86428 | -104.68547 | 5366 ft | 16 kts | 270° |
| 2026-05-04 22:01 | 39.86429 | -104.68695 | 5366 ft | 14 kts | 271° |
| 2026-05-04 22:01 | 39.86455 | -104.68719 | 5366 ft | 10 kts | 358° |
| 2026-05-04 22:02 | 39.86727 | -104.68718 | 5362 ft | 72 kts | 0° |
| 2026-05-04 22:02 | 39.87399 | -104.68709 | 5358 ft | 118 kts | 0° |
| 2026-05-04 22:02 | 39.88300 | -104.68695 | 5551 ft | 135 kts | 1° |
| 2026-05-04 22:02 | 39.89220 | -104.68620 | 5931 ft | 146 kts | 2° |
| 2026-05-04 22:03 | 39.90285 | -104.68188 | 5940 ft | 180 kts | 41° |
| 2026-05-04 22:03 | 39.90907 | -104.66820 | 6459 ft | 181 kts | 80° |
| 2026-05-04 22:03 | 39.90634 | -104.65236 | 6789 ft | 186 kts | 129° |
| 2026-05-04 22:03 | 39.89663 | -104.64133 | 7166 ft | 192 kts | 144° |
| 2026-05-04 22:04 | 39.88646 | -104.62829 | 7225 ft | 223 kts | 120° |
| 2026-05-04 22:04 | 39.88001 | -104.60949 | 7410 ft | 250 kts | 112° |
| 2026-05-04 22:04 | 39.87348 | -104.58819 | 7759 ft | 271 kts | 111° |
| 2026-05-04 22:04 | 39.86638 | -104.56542 | 8166 ft | 288 kts | 112° |
| 2026-05-04 22:05 | 39.85846 | -104.54094 | 8812 ft | 296 kts | 113° |
| 2026-05-04 22:05 | 39.85036 | -104.51604 | 9631 ft | 302 kts | 113° |
| 2026-05-04 22:05 | 39.84214 | -104.49075 | 10436 ft | 304 kts | 113° |
| 2026-05-04 22:05 | 39.83368 | -104.46470 | 10886 ft | 323 kts | 113° |
| 2026-05-04 22:06 | 39.82466 | -104.43685 | 11206 ft | 346 kts | 113° |
| 2026-05-04 22:06 | 39.81514 | -104.40734 | 11712 ft | 356 kts | 113° |
| 2026-05-04 22:06 | 39.80526 | -104.37768 | 12528 ft | 358 kts | 114° |
| 2026-05-04 22:06 | 39.79485 | -104.34802 | 13252 ft | 363 kts | 115° |
| 2026-05-04 22:07 | 39.78436 | -104.31790 | 13724 ft | 372 kts | 115° |
| 2026-05-04 22:07 | 39.77354 | -104.28682 | 14191 ft | 378 kts | 115° |
| 2026-05-04 22:07 | 39.76296 | -104.25636 | 15047 ft | 374 kts | 115° |
| 2026-05-04 22:07 | 39.75269 | -104.22698 | 15701 ft | 375 kts | 115° |
| 2026-05-04 22:08 | 39.74247 | -104.19748 | 16151 ft | 382 kts | 115° |
| 2026-05-04 22:08 | 39.73145 | -104.16590 | 16730 ft | 385 kts | 115° |
| 2026-05-04 22:08 | 39.72035 | -104.13422 | 17293 ft | 388 kts | 116° |
| 2026-05-04 22:08 | 39.70894 | -104.10226 | 17842 ft | 392 kts | 116° |
| 2026-05-04 22:09 | 39.69751 | -104.06996 | 18336 ft | 395 kts | 116° |
| 2026-05-04 22:09 | 39.68598 | -104.03731 | 18814 ft | 399 kts | 116° |
| 2026-05-04 22:09 | 39.67434 | -104.00455 | 19284 ft | 402 kts | 116° |
| 2026-05-04 22:09 | 39.66260 | -103.97138 | 19751 ft | 405 kts | 116° |
| 2026-05-04 22:10 | 39.65033 | -103.93832 | 20204 ft | 408 kts | 118° |
| 2026-05-04 22:10 | 39.63721 | -103.90609 | 20638 ft | 411 kts | 120° |
| 2026-05-04 22:10 | 39.62440 | -103.87584 | 21003 ft | 415 kts | 121° |
| 2026-05-04 22:10 | 39.61093 | -103.84423 | 21392 ft | 418 kts | 121° |
| 2026-05-04 22:11 | 39.59695 | -103.81093 | 21757 ft | 423 kts | 120° |
| 2026-05-04 22:11 | 39.58428 | -103.77633 | 22137 ft | 428 kts | 113° |
| 2026-05-04 22:11 | 39.57474 | -103.74148 | 22483 ft | 432 kts | 110° |
| 2026-05-04 22:11 | 39.56537 | -103.70442 | 22853 ft | 435 kts | 110° |
| 2026-05-04 22:12 | 39.55582 | -103.66703 | 23211 ft | 439 kts | 110° |
| 2026-05-04 22:12 | 39.54621 | -103.62942 | 23518 ft | 442 kts | 110° |
| 2026-05-04 22:12 | 39.53642 | -103.59194 | 23798 ft | 445 kts | 112° |
| 2026-05-04 22:12 | 39.52614 | -103.55831 | 24051 ft | 447 kts | 114° |
| 2026-05-04 22:13 | 39.51491 | -103.52318 | 24309 ft | 450 kts | 114° |
| 2026-05-04 22:13 | 39.50324 | -103.48544 | 24595 ft | 454 kts | 112° |
| 2026-05-04 22:13 | 39.49229 | -103.44701 | 24707 ft | 456 kts | 111° |
| 2026-05-04 22:13 | 39.48152 | -103.40825 | 24813 ft | 458 kts | 111° |
| 2026-05-04 22:14 | 39.47072 | -103.36941 | 24855 ft | 460 kts | 111° |
| 2026-05-04 22:14 | 39.45972 | -103.33038 | 24902 ft | 463 kts | 111° |
| 2026-05-04 22:14 | 39.44851 | -103.29124 | 25003 ft | 464 kts | 112° |
| 2026-05-04 22:14 | 39.43718 | -103.25208 | 25108 ft | 465 kts | 112° |
| 2026-05-04 22:15 | 39.42599 | -103.21337 | 25205 ft | 466 kts | 112° |
| 2026-05-04 22:15 | 39.41534 | -103.17641 | 25284 ft | 467 kts | 112° |
| 2026-05-04 22:15 | 39.40400 | -103.13700 | 25392 ft | 468 kts | 112° |
| 2026-05-04 22:15 | 39.39263 | -103.09759 | 25529 ft | 468 kts | 111° |
| 2026-05-04 22:16 | 39.38123 | -103.05811 | 25611 ft | 469 kts | 111° |
| 2026-05-04 22:16 | 39.36981 | -103.01860 | 25695 ft | 470 kts | 111° |
| 2026-05-04 22:16 | 39.35833 | -102.97896 | 25786 ft | 471 kts | 111° |
| 2026-05-04 22:16 | 39.34777 | -102.93885 | 25863 ft | 473 kts | 105° |
| 2026-05-04 22:17 | 39.34158 | -102.89857 | 25940 ft | 474 kts | 98° |
| 2026-05-04 22:17 | 39.33753 | -102.85631 | 26030 ft | 475 kts | 96° |
| 2026-05-04 22:17 | 39.33389 | -102.81641 | 26111 ft | 476 kts | 97° |
| 2026-05-04 22:17 | 39.32925 | -102.77403 | 26192 ft | 477 kts | 99° |
| 2026-05-04 22:18 | 39.32388 | -102.73174 | 26240 ft | 478 kts | 99° |
| 2026-05-04 22:18 | 39.31861 | -102.68933 | 26502 ft | 480 kts | 98° |
| 2026-05-04 22:18 | 39.31336 | -102.64664 | 26734 ft | 483 kts | 98° |
| 2026-05-04 22:18 | 39.30800 | -102.60366 | 26964 ft | 485 kts | 98° |
| 2026-05-04 22:19 | 39.30267 | -102.56058 | 27201 ft | 487 kts | 98° |
| 2026-05-04 22:19 | 39.29728 | -102.51721 | 27436 ft | 490 kts | 98° |
| 2026-05-04 22:19 | 39.29215 | -102.47599 | 27648 ft | 492 kts | 99° |
| 2026-05-04 22:19 | 39.28677 | -102.43270 | 27863 ft | 494 kts | 98° |
| 2026-05-04 22:20 | 39.28125 | -102.38877 | 28071 ft | 497 kts | 98° |
| 2026-05-04 22:20 | 39.27571 | -102.34460 | 28250 ft | 500 kts | 98° |
| 2026-05-04 22:20 | 39.27014 | -102.30082 | 28436 ft | 502 kts | 99° |
| 2026-05-04 22:20 | 39.26450 | -102.25625 | 28623 ft | 504 kts | 98° |
| 2026-05-04 22:21 | 39.25882 | -102.21160 | 28814 ft | 506 kts | 99° |
| 2026-05-04 22:21 | 39.25310 | -102.16673 | 29033 ft | 505 kts | 99° |
| 2026-05-04 22:21 | 39.24769 | -102.12444 | 29526 ft | 500 kts | 99° |
| 2026-05-04 22:21 | 39.24206 | -102.08060 | 29764 ft | 501 kts | 99° |
| 2026-05-04 22:22 | 39.23635 | -102.03627 | 29997 ft | 501 kts | 99° |
| 2026-05-04 22:22 | 39.23060 | -101.99193 | 30224 ft | 501 kts | 99° |
| 2026-05-04 22:22 | 39.22487 | -101.94762 | 30408 ft | 501 kts | 99° |
| 2026-05-04 22:22 | 39.21909 | -101.90327 | 30622 ft | 501 kts | 99° |
| 2026-05-04 22:23 | 39.21328 | -101.85889 | 30806 ft | 502 kts | 99° |
| 2026-05-04 22:23 | 39.20747 | -101.81450 | 31002 ft | 502 kts | 99° |
| 2026-05-04 22:23 | 39.20192 | -101.77217 | 31087 ft | 504 kts | 99° |
| 2026-05-04 22:23 | 39.19610 | -101.72817 | 31230 ft | 506 kts | 99° |
| 2026-05-04 22:24 | 39.19021 | -101.68348 | 31414 ft | 506 kts | 99° |
| 2026-05-04 22:24 | 39.18427 | -101.63872 | 31654 ft | 505 kts | 99° |
| 2026-05-04 22:24 | 39.17832 | -101.59408 | 31822 ft | 506 kts | 99° |
| 2026-05-04 22:24 | 39.17245 | -101.54986 | 31999 ft | 506 kts | 99° |
| 2026-05-04 22:25 | 39.16649 | -101.50523 | 32176 ft | 506 kts | 100° |
| 2026-05-04 22:25 | 39.16053 | -101.46080 | 32357 ft | 506 kts | 100° |
| 2026-05-04 22:25 | 39.15490 | -101.41907 | 32515 ft | 506 kts | 100° |
| 2026-05-04 22:25 | 39.14887 | -101.37437 | 32670 ft | 507 kts | 100° |
| 2026-05-04 22:26 | 39.14283 | -101.32973 | 32851 ft | 507 kts | 100° |
| 2026-05-04 22:26 | 39.13670 | -101.28500 | 32968 ft | 509 kts | 100° |
| 2026-05-04 22:26 | 39.13048 | -101.23982 | 32953 ft | 515 kts | 100° |
| 2026-05-04 22:27 | 39.11998 | -101.16247 | 32948 ft | 524 kts | 100° |
| 2026-05-04 22:27 | 39.10882 | -101.08111 | 32944 ft | 532 kts | 100° |
| 2026-05-04 22:28 | 39.09629 | -100.99016 | 33079 ft | 538 kts | 100° |
| 2026-05-04 22:28 | 39.08987 | -100.94375 | 32947 ft | 532 kts | 100° |
| 2026-05-04 22:28 | 39.08333 | -100.89679 | 32882 ft | 536 kts | 100° |
| 2026-05-04 22:28 | 39.07388 | -100.85024 | 32790 ft | 538 kts | 112° |
| 2026-05-04 22:29 | 39.05870 | -100.80855 | 32732 ft | 535 kts | 126° |
| 2026-05-04 22:29 | 39.03729 | -100.76981 | 32725 ft | 529 kts | 138° |
| 2026-05-04 22:29 | 39.01111 | -100.73720 | 32732 ft | 521 kts | 149° |
| 2026-05-04 22:30 | 38.95765 | -100.67637 | 32733 ft | 534 kts | 145° |
| 2026-05-04 22:30 | 38.90198 | -100.61525 | 32736 ft | 541 kts | 145° |
| 2026-05-04 22:31 | 38.84918 | -100.54441 | 32739 ft | 556 kts | 137° |
| 2026-05-04 22:31 | 38.80219 | -100.46408 | 32745 ft | 568 kts | 131° |
| 2026-05-04 22:32 | 38.75308 | -100.39094 | 32745 ft | 567 kts | 138° |
| 2026-05-04 22:32 | 38.70555 | -100.31608 | 32745 ft | 575 kts | 134° |
| 2026-05-04 22:33 | 38.67966 | -100.27537 | 32750 ft | 573 kts | 136° |
| 2026-05-04 22:33 | 38.62898 | -100.19930 | 32742 ft | 574 kts | 136° |
| 2026-05-04 22:34 | 38.60301 | -100.15926 | 32736 ft | 575 kts | 135° |
| 2026-05-04 22:34 | 38.58237 | -100.12705 | 32736 ft | 576 kts | 135° |
| 2026-05-04 22:35 | 38.56292 | -100.09664 | 32731 ft | 576 kts | 135° |
| 2026-05-04 22:35 | 38.54600 | -100.07061 | 32732 ft | 575 kts | 136° |
| 2026-05-04 22:36 | 38.53324 | -100.05129 | 32740 ft | 575 kts | 136° |
| 2026-05-04 22:36 | 38.51992 | -100.03101 | 32737 ft | 576 kts | 136° |
| 2026-05-04 22:37 | 38.50380 | -100.00610 | 32741 ft | 577 kts | 135° |
| 2026-05-04 22:37 | 38.48951 | -99.98285 | 32737 ft | 579 kts | 133° |
| 2026-05-04 22:38 | 38.47575 | -99.95878 | 32741 ft | 581 kts | 129° |
| 2026-05-04 22:38 | 38.46247 | -99.93323 | 32711 ft | 583 kts | 127° |
| 2026-05-04 22:39 | 38.45113 | -99.91000 | 32724 ft | 584 kts | 126° |
| 2026-05-04 22:39 | 38.43250 | -99.87138 | 32736 ft | 585 kts | 127° |
| 2026-05-04 22:40 | 38.41635 | -99.83885 | 32742 ft | 584 kts | 128° |
| 2026-05-04 22:40 | 38.40159 | -99.81060 | 32761 ft | 583 kts | 129° |
| 2026-05-04 22:41 | 38.38833 | -99.78587 | 32762 ft | 583 kts | 129° |
| 2026-05-04 22:41 | 38.37132 | -99.75421 | 32762 ft | 584 kts | 129° |
| 2026-05-04 22:42 | 38.35443 | -99.72266 | 32764 ft | 584 kts | 129° |
| 2026-05-04 22:42 | 38.33772 | -99.69084 | 32763 ft | 585 kts | 129° |
| 2026-05-04 22:43 | 38.31910 | -99.65523 | 32777 ft | 586 kts | 129° |
| 2026-05-04 22:43 | 38.30536 | -99.62902 | 32777 ft | 586 kts | 129° |
| 2026-05-04 22:44 | 38.27893 | -99.57873 | 32777 ft | 586 kts | 129° |
| 2026-05-04 22:44 | 38.25676 | -99.53661 | 32756 ft | 575 kts | 127° |
| 2026-05-04 22:44 | 38.24812 | -99.51999 | 32761 ft | 558 kts | 126° |
| 2026-05-04 22:45 | 38.23883 | -99.50178 | 32765 ft | 547 kts | 126° |
| 2026-05-04 22:45 | 38.20485 | -99.43528 | 32781 ft | 534 kts | 127° |
| 2026-05-04 22:45 | 38.18423 | -99.39628 | 32775 ft | 528 kts | 127° |
| 2026-05-04 22:46 | 38.15016 | -99.33182 | 32707 ft | 528 kts | 127° |
| 2026-05-04 22:46 | 38.11032 | -99.25661 | 32692 ft | 529 kts | 127° |
| 2026-05-04 22:47 | 38.06250 | -99.16656 | 32697 ft | 531 kts | 127° |
| 2026-05-04 22:47 | 38.02783 | -99.10138 | 32708 ft | 533 kts | 127° |
| 2026-05-04 22:48 | 37.98621 | -99.02342 | 32740 ft | 535 kts | 127° |
| 2026-05-04 22:48 | 37.94645 | -98.94900 | 32773 ft | 536 kts | 127° |
| 2026-05-04 22:49 | 37.90712 | -98.87562 | 32746 ft | 537 kts | 127° |
| 2026-05-04 22:49 | 37.88577 | -98.83579 | 32729 ft | 536 kts | 127° |
| 2026-05-04 22:50 | 37.86268 | -98.79287 | 32714 ft | 534 kts | 127° |
| 2026-05-04 22:50 | 37.82093 | -98.71540 | 32706 ft | 532 kts | 127° |
| 2026-05-04 22:51 | 37.77957 | -98.63867 | 32696 ft | 531 kts | 127° |
| 2026-05-04 22:51 | 37.73925 | -98.56413 | 32707 ft | 530 kts | 127° |
| 2026-05-04 22:52 | 37.69767 | -98.48752 | 32734 ft | 528 kts | 127° |
| 2026-05-04 22:52 | 37.65687 | -98.41245 | 32812 ft | 527 kts | 127° |
| 2026-05-04 22:53 | 37.61534 | -98.33622 | 32825 ft | 526 kts | 127° |
| 2026-05-04 22:53 | 37.57446 | -98.26129 | 32813 ft | 526 kts | 127° |
| 2026-05-04 22:54 | 37.53359 | -98.18658 | 32823 ft | 525 kts | 127° |
| 2026-05-04 22:54 | 37.49210 | -98.11093 | 32816 ft | 525 kts | 127° |
| 2026-05-04 22:55 | 37.45056 | -98.03537 | 32823 ft | 524 kts | 127° |
| 2026-05-04 22:55 | 37.40982 | -97.96141 | 32835 ft | 523 kts | 127° |
| 2026-05-04 22:56 | 37.36966 | -97.88866 | 32833 ft | 524 kts | 127° |
| 2026-05-04 22:56 | 37.32811 | -97.81355 | 32844 ft | 523 kts | 127° |
| 2026-05-04 22:57 | 37.28676 | -97.73903 | 32849 ft | 523 kts | 127° |
| 2026-05-04 22:57 | 37.24511 | -97.66412 | 32845 ft | 523 kts | 127° |
| 2026-05-04 22:58 | 37.20356 | -97.58943 | 32583 ft | 522 kts | 128° |
| 2026-05-04 22:58 | 37.16254 | -97.51731 | 32512 ft | 527 kts | 132° |
| 2026-05-04 22:59 | 37.14101 | -97.48032 | 31867 ft | 524 kts | 131° |
| 2026-05-04 22:59 | 37.12067 | -97.44432 | 31232 ft | 528 kts | 129° |
| 2026-05-04 22:59 | 37.09962 | -97.40644 | 30594 ft | 531 kts | 128° |
| 2026-05-04 22:59 | 37.07849 | -97.36813 | 29969 ft | 535 kts | 128° |
| 2026-05-04 23:00 | 37.05703 | -97.32972 | 29282 ft | 540 kts | 128° |
| 2026-05-04 23:00 | 37.03531 | -97.29113 | 28551 ft | 541 kts | 128° |
| 2026-05-04 23:00 | 37.01394 | -97.25315 | 27830 ft | 540 kts | 128° |
| 2026-05-04 23:00 | 36.99237 | -97.21482 | 27081 ft | 537 kts | 127° |
| 2026-05-04 23:01 | 36.97192 | -97.17852 | 26420 ft | 534 kts | 127° |
| 2026-05-04 23:01 | 36.95059 | -97.14075 | 25766 ft | 530 kts | 127° |
| 2026-05-04 23:01 | 36.92966 | -97.10376 | 25126 ft | 526 kts | 127° |
| 2026-05-04 23:01 | 36.90862 | -97.06661 | 24497 ft | 522 kts | 127° |
| 2026-05-04 23:02 | 36.88772 | -97.02967 | 23878 ft | 518 kts | 127° |
| 2026-05-04 23:02 | 36.86696 | -96.99304 | 23274 ft | 514 kts | 127° |
| 2026-05-04 23:02 | 36.84710 | -96.95807 | 22582 ft | 510 kts | 127° |
| 2026-05-04 23:02 | 36.82667 | -96.92217 | 21894 ft | 505 kts | 128° |
| 2026-05-04 23:03 | 36.80646 | -96.88664 | 21224 ft | 495 kts | 128° |
| 2026-05-04 23:03 | 36.78741 | -96.85316 | 20568 ft | 485 kts | 128° |
| 2026-05-04 23:03 | 36.76879 | -96.82052 | 19980 ft | 475 kts | 128° |
| 2026-05-04 23:03 | 36.74982 | -96.78735 | 19400 ft | 468 kts | 128° |
| 2026-05-04 23:04 | 36.73091 | -96.75427 | 18823 ft | 466 kts | 128° |
| 2026-05-04 23:04 | 36.71228 | -96.72168 | 18256 ft | 458 kts | 128° |
| 2026-05-04 23:04 | 36.69388 | -96.68948 | 17674 ft | 453 kts | 128° |
| 2026-05-04 23:04 | 36.67568 | -96.65772 | 17077 ft | 448 kts | 128° |
| 2026-05-04 23:05 | 36.65766 | -96.62629 | 16493 ft | 439 kts | 128° |
| 2026-05-04 23:05 | 36.64021 | -96.59582 | 15911 ft | 426 kts | 128° |
| 2026-05-04 23:05 | 36.62322 | -96.56619 | 15353 ft | 414 kts | 128° |
| 2026-05-04 23:05 | 36.60684 | -96.53778 | 14824 ft | 404 kts | 128° |
| 2026-05-04 23:06 | 36.59066 | -96.50974 | 14339 ft | 394 kts | 129° |
| 2026-05-04 23:06 | 36.57616 | -96.48457 | 13900 ft | 386 kts | 128° |
| 2026-05-04 23:06 | 36.56126 | -96.45876 | 13439 ft | 379 kts | 128° |
| 2026-05-04 23:06 | 36.54613 | -96.43234 | 12944 ft | 371 kts | 128° |
| 2026-05-04 23:07 | 36.53123 | -96.40655 | 12447 ft | 364 kts | 129° |
| 2026-05-04 23:07 | 36.51638 | -96.38095 | 11960 ft | 358 kts | 129° |
| 2026-05-04 23:07 | 36.50215 | -96.35639 | 11531 ft | 352 kts | 129° |
| 2026-05-04 23:07 | 36.48801 | -96.33187 | 11122 ft | 346 kts | 129° |
| 2026-05-04 23:08 | 36.47407 | -96.30784 | 10705 ft | 340 kts | 129° |
| 2026-05-04 23:08 | 36.46233 | -96.28759 | 10360 ft | 336 kts | 129° |
| 2026-05-04 23:08 | 36.44877 | -96.26423 | 9956 ft | 332 kts | 129° |
| 2026-05-04 23:08 | 36.43533 | -96.24119 | 9556 ft | 328 kts | 129° |
| 2026-05-04 23:09 | 36.42403 | -96.21718 | 9130 ft | 327 kts | 112° |
| 2026-05-04 23:09 | 36.41856 | -96.19023 | 8703 ft | 316 kts | 102° |
| 2026-05-04 23:09 | 36.41535 | -96.16374 | 8285 ft | 305 kts | 100° |
| 2026-05-04 23:09 | 36.41287 | -96.13948 | 7899 ft | 296 kts | 100° |
| 2026-05-04 23:10 | 36.41037 | -96.11448 | 7496 ft | 288 kts | 100° |
| 2026-05-04 23:10 | 36.40762 | -96.08975 | 7128 ft | 289 kts | 102° |
| 2026-05-04 23:10 | 36.40446 | -96.06511 | 6759 ft | 289 kts | 103° |
| 2026-05-04 23:10 | 36.40123 | -96.04069 | 6404 ft | 283 kts | 103° |
| 2026-05-04 23:11 | 36.39805 | -96.01693 | 6035 ft | 275 kts | 103° |
| 2026-05-04 23:11 | 36.39501 | -95.99383 | 5650 ft | 267 kts | 104° |
| 2026-05-04 23:11 | 36.39208 | -95.97144 | 5292 ft | 259 kts | 104° |
| 2026-05-04 23:11 | 36.38926 | -95.94979 | 4936 ft | 251 kts | 105° |
| 2026-05-04 23:12 | 36.38651 | -95.92868 | 4588 ft | 243 kts | 105° |
| 2026-05-04 23:12 | 36.38388 | -95.90834 | 4256 ft | 235 kts | 105° |
| 2026-05-04 23:12 | 36.38019 | -95.88905 | 3846 ft | 225 kts | 120° |
| 2026-05-04 23:12 | 36.37161 | -95.87358 | 3381 ft | 214 kts | 144° |
| 2026-05-04 23:13 | 36.35903 | -95.86654 | 3089 ft | 189 kts | 180° |
| 2026-05-04 23:13 | 36.34682 | -95.86781 | 2973 ft | 166 kts | 188° |
| 2026-05-04 23:13 | 36.33601 | -95.86962 | 2852 ft | 151 kts | 189° |
| 2026-05-04 23:13 | 36.32646 | -95.87198 | 2646 ft | 130 kts | 191° |
| 2026-05-04 23:14 | 36.31769 | -95.87421 | 2468 ft | 131 kts | 188° |
| 2026-05-04 23:14 | 36.30884 | -95.87493 | 2329 ft | 123 kts | 185° |
| 2026-05-04 23:14 | 36.30026 | -95.87515 | 2204 ft | 121 kts | 184° |
| 2026-05-04 23:14 | 36.29210 | -95.87560 | 2080 ft | 117 kts | 185° |
| 2026-05-04 23:15 | 36.28423 | -95.87620 | 1981 ft | 116 kts | 185° |
| 2026-05-04 23:15 | 36.27619 | -95.87708 | 1816 ft | 119 kts | 185° |
| 2026-05-04 23:15 | 36.26791 | -95.87770 | 1678 ft | 116 kts | 184° |
| 2026-05-04 23:15 | 36.25977 | -95.87818 | 1553 ft | 121 kts | 184° |
| 2026-05-04 23:16 | 36.25109 | -95.87872 | 1419 ft | 126 kts | 184° |
| 2026-05-04 23:16 | 36.24245 | -95.87927 | 1268 ft | 122 kts | 184° |
| 2026-05-04 23:16 | 36.23403 | -95.88003 | 1088 ft | 120 kts | 182° |
| 2026-05-04 23:16 | 36.22579 | -95.88056 | 900 ft | 121 kts | 182° |
| 2026-05-04 23:17 | 36.21736 | -95.88109 | 741 ft | 120 kts | 183° |
| 2026-05-04 23:17 | 36.20956 | -95.88160 | 636 ft | 102 kts | 184° |
| 2026-05-04 23:17 | 36.20384 | -95.88201 | 639 ft | 62 kts | 184° |
| 2026-05-04 23:17 | 36.20023 | -95.88223 | 649 ft | 47 kts | 184° |
| 2026-05-04 23:18 | 36.19711 | -95.88245 | 651 ft | 43 kts | 183° |
| 2026-05-04 23:18 | 36.19464 | -95.88271 | 651 ft | 19 kts | 211° |
| 2026-05-04 23:18 | 36.19446 | -95.88388 | 653 ft | 14 kts | 269° |
| 2026-05-04 23:18 | 36.19444 | -95.88515 | 652 ft | 16 kts | 258° |
| 2026-05-04 23:19 | 36.19367 | -95.88616 | 653 ft | 17 kts | 216° |
| 2026-05-04 23:19 | 36.19278 | -95.88696 | 654 ft | 15 kts | 216° |
| 2026-05-04 23:19 | 36.19195 | -95.88769 | 655 ft | 13 kts | 218° |
| 2026-05-04 23:19 | 36.19177 | -95.88848 | 657 ft | 10 kts | 302° |
| 2026-05-04 23:20 | 36.19197 | -95.88882 | 654 ft | 3 kts | 308° |
| 2026-05-04 23:20 | 36.19198 | -95.88883 | 654 ft | 0 kts | 308° |